Terminal Aerodrome Forecast
Issued by NWS Tampa Bay Area, FL

Home | Current Version | Previous Version | Text Only | Print | Product List | Glossary On
Versions: 1 2 3 4 5 6 7 8 9 10 11 12
000
FTUS42 KTBW 031121
TAFFMY
TAF
KFMY 031121Z 0312/0412 08007KT P6SM SKC
     FM031300 09012KT P6SM FEW035 FEW250
     FM031700 09013G20KT P6SM SCT060
     FM040200 09009KT P6SM FEW250=

USA.gov is the U.S. government's official web portal to all federal, state and local government web resources and services.